Time;durP1;ratioP1;P1;durP2;ratioP2;P2;SDS_P1;SDS_P2;PMS_P1;PMS_P2;Temp;Humidity;BMP_temperature;BMP_pressure;BME280_temperature;BME280_humidity;BME280_pressure;Samples;Min_cycle;Max_cycle;Signal;HPM_P1;HPM_P2
2023/12/04 00:02:10;;;;;;;1999.90;999.90;;;6.40;99.90;;;;;;5042093;28;20549;-70
2023/12/04 00:04:37;;;;;;;1999.90;999.90;;;6.30;99.90;;;;;;5013351;28;20041;-70
2023/12/04 00:07:03;;;;;;;1999.90;999.90;;;6.30;99.90;;;;;;5012876;28;20034;-69
2023/12/04 00:09:30;;;;;;;1999.90;999.90;;;6.20;99.90;;;;;;5013424;28;20041;-70
2023/12/04 00:11:56;;;;;;;1999.90;999.90;;;6.20;99.90;;;;;;5012455;28;20029;-70
2023/12/04 00:14:22;;;;;;;87.33;82.83;;;6.20;99.90;;;;;;5028382;28;20026;-70
2023/12/04 00:16:48;;;;;;;98.47;93.37;;;6.20;99.90;;;;;;5027628;28;20049;-70
2023/12/04 00:19:14;;;;;;;58.57;55.47;;;6.10;99.90;;;;;;5011905;28;20050;-70
2023/12/04 00:21:40;;;;;;;51.07;48.23;;;6.00;99.90;;;;;;5012836;28;20483;-69
2023/12/04 00:24:06;;;;;;;45.70;43.17;;;6.00;99.90;;;;;;5013052;28;20038;-70
2023/12/04 00:26:32;;;;;;;103.93;98.53;;;6.00;99.90;;;;;;5027548;28;20037;-70
2023/12/04 00:28:59;;;;;;;47.47;44.50;;;6.00;99.90;;;;;;5012978;28;20434;-69
2023/12/04 00:31:25;;;;;;;85.13;80.63;;;5.90;99.90;;;;;;5023785;28;20057;-70
2023/12/04 00:33:51;;;;;;;86.73;82.33;;;5.80;99.90;;;;;;5033175;28;20037;-70
2023/12/04 00:36:19;;;;;;;36.23;34.23;;;5.90;99.90;;;;;;5031184;28;20402;-70
2023/12/04 00:38:45;;;;;;;52.03;49.17;;;5.90;99.90;;;;;;5032596;28;20029;-70
2023/12/04 00:41:11;;;;;;;73.57;69.60;;;5.90;99.90;;;;;;5031880;28;20033;-70
2023/12/04 00:43:37;;;;;;;63.47;60.17;;;5.90;99.90;;;;;;5032513;28;20042;-70
2023/12/04 00:46:03;;;;;;;49.23;46.63;;;5.80;99.90;;;;;;5023736;28;20483;-70
2023/12/04 00:48:29;;;;;;;59.90;56.67;;;5.80;99.90;;;;;;5012525;28;20533;-70
2023/12/04 00:50:57;;;;;;;101.37;96.00;;;5.80;99.90;;;;;;5012108;28;20037;-70
2023/12/04 00:53:23;;;;;;;105.93;100.43;;;5.80;99.90;;;;;;5027819;28;20030;-70
2023/12/04 00:55:49;;;;;;;40.97;38.77;;;5.70;99.90;;;;;;5011886;28;20416;-70
2023/12/04 00:58:15;;;;;;;86.00;81.53;;;5.70;99.90;;;;;;5012816;28;20045;-70
2023/12/04 01:00:41;;;;;;;52.13;48.80;;;5.70;99.90;;;;;;5028989;28;20038;-70
2023/12/04 01:03:07;;;;;;;42.87;40.53;;;5.70;99.90;;;;;;5012353;28;20049;-70
2023/12/04 01:05:33;;;;;;;84.73;80.13;;;5.80;99.90;;;;;;5012209;28;20029;-70
2023/12/04 01:07:59;;;;;;;44.30;41.87;;;5.80;99.90;;;;;;5027732;28;20387;-70
2023/12/04 01:10:25;;;;;;;32.30;30.37;;;5.80;99.90;;;;;;5011963;28;20078;-70
2023/12/04 01:12:52;;;;;;;33.03;31.17;;;5.80;99.90;;;;;;5012366;28;20033;-70
2023/12/04 01:15:18;;;;;;;56.30;53.23;;;5.80;99.90;;;;;;5011696;28;20038;-70
2023/12/04 01:17:44;;;;;;;38.43;36.27;;;5.70;99.90;;;;;;5012466;28;20029;-70
2023/12/04 01:20:10;;;;;;;49.27;46.43;;;5.80;99.90;;;;;;5012079;28;20068;-70
2023/12/04 01:22:36;;;;;;;48.73;46.00;;;5.70;99.90;;;;;;5011986;28;20525;-70
2023/12/04 01:25:03;;;;;;;29.30;27.60;;;5.70;99.90;;;;;;5012329;28;20041;-69
2023/12/04 01:27:29;;;;;;;42.50;40.20;;;5.80;99.90;;;;;;5012132;28;20041;-71
2023/12/04 01:29:55;;;;;;;45.03;42.60;;;5.80;99.90;;;;;;5012523;28;20041;-70
2023/12/04 01:32:21;;;;;;;33.87;31.97;;;5.80;99.90;;;;;;5030292;28;20041;-70
2023/12/04 01:34:47;;;;;;;28.97;27.27;;;5.80;99.90;;;;;;5032068;28;20382;-70
2023/12/04 01:37:13;;;;;;;31.03;29.00;;;5.70;99.90;;;;;;5031277;28;20030;-70
2023/12/04 01:39:39;;;;;;;34.03;31.97;;;5.80;99.90;;;;;;5034197;28;20496;-71
2023/12/04 01:42:05;;;;;;;32.60;30.73;;;5.80;99.90;;;;;;5035501;28;20021;-71
2023/12/04 01:44:32;;;;;;;30.03;28.33;;;5.70;99.90;;;;;;5035859;28;20045;-70
2023/12/04 01:46:58;;;;;;;41.27;39.00;;;5.80;99.90;;;;;;5019382;28;20033;-72
2023/12/04 01:49:24;;;;;;;29.10;27.40;;;5.80;99.90;;;;;;5016096;28;20041;-72
2023/12/04 01:51:50;;;;;;;49.63;47.03;;;5.80;99.90;;;;;;5013438;28;20042;-72
2023/12/04 01:54:16;;;;;;;27.67;26.07;;;5.80;99.90;;;;;;5031420;28;20042;-71
2023/12/04 01:56:42;;;;;;;41.87;39.47;;;5.80;99.90;;;;;;5015311;28;20637;-71
2023/12/04 01:59:08;;;;;;;57.70;54.70;;;5.80;99.90;;;;;;5030975;28;20048;-71
2023/12/04 02:01:34;;;;;;;86.93;82.37;;;5.90;99.90;;;;;;5006647;28;20043;-71
2023/12/04 02:04:01;;;;;;;53.00;50.23;;;5.90;99.90;;;;;;5031004;28;20468;-71
2023/12/04 02:06:27;;;;;;;63.30;59.97;;;6.00;99.90;;;;;;5029740;28;20038;-70
2023/12/04 02:08:53;;;;;;;72.97;69.10;;;6.10;99.90;;;;;;5015681;28;20042;-71
2023/12/04 02:11:19;;;;;;;62.27;59.07;;;6.10;99.90;;;;;;5015335;28;20034;-71
2023/12/04 02:13:45;;;;;;;53.27;50.47;;;6.20;99.90;;;;;;5015347;28;20057;-71
2023/12/04 02:16:12;;;;;;;48.50;45.90;;;6.30;99.90;;;;;;5014928;28;20046;-71
2023/12/04 02:18:38;;;;;;;43.43;40.93;;;6.40;99.90;;;;;;5014062;28;20582;-71
2023/12/04 02:21:04;;;;;;;32.53;30.47;;;6.50;99.90;;;;;;5030052;28;20041;-71
2023/12/04 02:23:30;;;;;;;32.87;31.13;;;6.50;99.90;;;;;;5015315;28;20049;-71
2023/12/04 02:25:59;;;;;;;31.27;29.47;;;6.50;99.90;;;;;;5015017;28;20041;-71
2023/12/04 02:28:26;;;;;;;32.30;30.50;;;6.60;99.90;;;;;;5013766;28;20045;-70
2023/12/04 02:30:52;;;;;;;38.33;36.20;;;6.60;99.90;;;;;;5020315;28;20041;-71
2023/12/04 02:33:18;;;;;;;38.70;36.63;;;6.60;99.90;;;;;;5050360;28;20029;-71
2023/12/04 02:35:44;;;;;;;37.43;35.33;;;6.70;99.90;;;;;;5049687;28;20033;-71
2023/12/04 02:38:10;;;;;;;39.27;37.17;;;6.70;99.90;;;;;;5033617;28;20060;-71
2023/12/04 02:40:37;;;;;;;42.47;40.07;;;6.70;99.90;;;;;;5049892;28;20025;-70
2023/12/04 02:43:03;;;;;;;40.17;37.92;;;6.80;99.90;;;;;;5033205;28;20038;-69
2023/12/04 02:45:29;;;;;;;37.47;35.25;;;6.70;99.90;;;;;;5030686;28;20034;-69
2023/12/04 02:47:55;;;;;;;33.17;31.20;;;6.80;99.90;;;;;;5014813;28;20034;-69
2023/12/04 02:50:21;;;;;;;37.83;35.83;;;6.80;99.90;;;;;;5013565;28;20029;-70
2023/12/04 02:52:47;;;;;;;38.10;35.97;;;6.80;99.90;;;;;;5014611;28;20048;-69
2023/12/04 02:55:13;;;;;;;41.03;38.57;;;6.80;99.90;;;;;;5013271;28;20037;-69
2023/12/04 02:57:39;;;;;;;39.33;37.23;;;6.80;99.90;;;;;;5014925;28;20394;-69
2023/12/04 03:00:06;;;;;;;40.50;38.23;;;6.80;99.90;;;;;;5014125;28;20030;-69
2023/12/04 03:02:32;;;;;;;39.20;36.97;;;6.80;99.90;;;;;;5014410;28;20041;-69
2023/12/04 03:04:58;;;;;;;40.90;38.67;;;6.80;99.90;;;;;;5014177;28;20044;-69
2023/12/04 03:07:24;;;;;;;45.20;42.60;;;6.90;99.90;;;;;;5013701;28;20037;-69
2023/12/04 03:09:50;;;;;;;38.00;35.90;;;6.90;99.90;;;;;;5013215;28;20402;-69
2023/12/04 03:12:17;;;;;;;38.50;36.07;;;6.90;99.90;;;;;;5014263;28;20059;-70
2023/12/04 03:14:43;;;;;;;37.17;35.10;;;7.00;99.90;;;;;;5014728;28;20041;-69
2023/12/04 03:17:09;;;;;;;36.63;34.53;;;7.00;99.90;;;;;;5013047;28;20487;-70
2023/12/04 03:19:35;;;;;;;39.77;37.53;;;7.00;99.90;;;;;;5013347;28;20050;-69
2023/12/04 03:22:01;;;;;;;53.30;50.40;;;7.10;99.90;;;;;;5013828;28;20049;-69
2023/12/04 03:24:27;;;;;;;45.23;42.60;;;7.10;99.90;;;;;;5014013;28;20471;-69
2023/12/04 03:26:54;;;;;;;44.67;42.27;;;7.10;99.90;;;;;;5013553;28;20038;-69
2023/12/04 03:29:20;;;;;;;49.23;46.63;;;7.10;99.90;;;;;;5014003;28;20037;-69
2023/12/04 03:31:46;;;;;;;53.72;50.90;;;7.20;99.90;;;;;;5027351;28;20414;-69
2023/12/04 03:34:12;;;;;;;60.33;57.25;;;7.20;99.90;;;;;;5033693;28;20034;-69
2023/12/04 03:36:38;;;;;;;50.28;47.63;;;7.20;99.90;;;;;;5032959;28;20052;-69
2023/12/04 03:39:04;;;;;;;54.22;51.22;;;7.20;99.90;;;;;;5033709;28;20029;-69
2023/12/04 03:41:30;;;;;;;48.97;46.38;;;7.20;99.90;;;;;;5033306;28;20387;-69
2023/12/04 03:43:56;;;;;;;39.78;37.45;;;7.30;99.90;;;;;;5033598;28;20042;-69
2023/12/04 03:46:23;;;;;;;37.13;35.05;;;7.30;99.90;;;;;;5021573;28;20041;-69
2023/12/04 03:48:49;;;;;;;43.83;41.40;;;7.30;99.90;;;;;;5013324;28;20037;-69
2023/12/04 03:51:15;;;;;;;38.20;36.05;;;7.40;99.90;;;;;;5013028;28;20497;-69
2023/12/04 03:53:41;;;;;;;43.08;40.72;;;7.40;99.90;;;;;;5013759;28;20045;-70
2023/12/04 03:56:07;;;;;;;44.92;42.50;;;7.40;99.90;;;;;;5013297;28;20036;-69
2023/12/04 03:58:34;;;;;;;70.00;66.32;;;7.40;99.90;;;;;;5013279;28;20045;-69
2023/12/04 04:01:00;;;;;;;57.03;53.83;;;7.40;99.90;;;;;;5012593;28;20054;-70
2023/12/04 04:03:26;;;;;;;51.63;48.70;;;7.40;99.90;;;;;;5012815;28;20038;-71
2023/12/04 04:05:52;;;;;;;52.80;50.03;;;7.40;99.90;;;;;;5013273;28;20475;-71
2023/12/04 04:08:18;;;;;;;58.05;54.92;;;7.50;99.90;;;;;;5013339;28;20033;-71
2023/12/04 04:10:45;;;;;;;52.83;49.92;;;7.50;99.90;;;;;;5012826;28;20518;-71
2023/12/04 04:13:11;;;;;;;55.10;52.20;;;7.50;99.90;;;;;;5013545;28;20364;-71
2023/12/04 04:15:37;;;;;;;51.63;48.40;;;7.50;99.90;;;;;;5012254;28;20037;-71
2023/12/04 04:18:03;;;;;;;54.72;51.83;;;7.60;99.90;;;;;;5012806;28;20033;-71
2023/12/04 04:20:29;;;;;;;38.55;36.50;;;7.60;99.90;;;;;;5012897;28;20049;-71
2023/12/04 04:22:55;;;;;;;40.72;38.53;;;7.60;99.90;;;;;;5012912;28;20391;-71
2023/12/04 04:25:23;;;;;;;39.60;37.38;;;7.60;99.90;;;;;;5012774;28;20045;-71
2023/12/04 04:27:49;;;;;;;132.68;121.90;;;7.60;99.90;;;;;;5012645;28;20030;-71
2023/12/04 04:30:17;;;;;;;38.15;36.03;;;7.60;99.90;;;;;;5012332;28;20041;-71
2023/12/04 04:32:43;;;;;;;37.47;35.22;;;7.60;99.90;;;;;;5012615;28;20475;-71
2023/12/04 04:35:09;;;;;;;39.08;36.92;;;7.60;99.90;;;;;;5012554;28;20037;-71
2023/12/04 04:37:35;;;;;;;38.60;36.30;;;7.60;99.90;;;;;;5012969;28;20034;-71
2023/12/04 04:40:01;;;;;;;36.88;34.67;;;7.60;99.90;;;;;;5012997;28;20034;-71
2023/12/04 04:42:28;;;;;;;37.33;35.03;;;7.60;99.90;;;;;;5012587;28;20471;-71
2023/12/04 04:44:54;;;;;;;39.50;37.10;;;7.60;99.90;;;;;;5012735;28;20057;-71
2023/12/04 04:47:20;;;;;;;38.60;36.28;;;7.70;99.90;;;;;;5030151;28;20037;-71
2023/12/04 04:49:46;;;;;;;45.47;42.70;;;7.60;99.90;;;;;;5032420;28;20030;-71
2023/12/04 04:52:12;;;;;;;43.45;40.55;;;7.70;99.90;;;;;;5032231;28;20056;-71
2023/12/04 04:54:38;;;;;;;76.25;72.05;;;7.70;99.90;;;;;;5032119;28;20040;-71
2023/12/04 04:57:04;;;;;;;41.80;39.53;;;7.70;99.90;;;;;;5032191;28;20458;-71
2023/12/04 04:59:31;;;;;;;39.90;37.08;;;7.70;99.90;;;;;;5032217;28;20450;-71
2023/12/04 05:01:58;;;;;;;39.28;36.65;;;7.70;99.90;;;;;;5046037;28;20577;-69
2023/12/04 05:04:24;;;;;;;40.00;37.60;;;7.70;99.90;;;;;;5032051;28;20045;-69
2023/12/04 05:06:50;;;;;;;46.38;43.65;;;7.70;99.90;;;;;;5032042;28;20029;-70
2023/12/04 05:09:16;;;;;;;40.30;38.05;;;7.70;99.90;;;;;;5030378;28;20045;-70
2023/12/04 05:11:42;;;;;;;41.72;39.10;;;7.70;99.90;;;;;;5031871;28;20041;-69
2023/12/04 05:14:08;;;;;;;48.42;45.60;;;7.70;99.90;;;;;;5033309;28;20044;-69
2023/12/04 05:16:34;;;;;;;39.55;37.15;;;7.80;99.90;;;;;;5035128;28;20040;-70
2023/12/04 05:19:00;;;;;;;41.92;39.35;;;7.80;99.90;;;;;;5036095;28;20065;-69
2023/12/04 05:21:26;;;;;;;49.17;46.30;;;7.80;99.90;;;;;;5036015;28;20033;-69
2023/12/04 05:23:52;;;;;;;41.33;38.80;;;7.80;99.90;;;;;;5035999;28;20044;-69
2023/12/04 05:26:18;;;;;;;39.60;36.65;;;7.80;99.90;;;;;;5035726;28;20045;-69
2023/12/04 05:28:46;;;;;;;39.22;36.60;;;7.80;99.90;;;;;;5035926;28;20390;-69
2023/12/04 05:31:12;;;;;;;40.83;38.45;;;7.80;99.90;;;;;;5034985;28;20041;-69
2023/12/04 05:33:38;;;;;;;42.75;39.75;;;7.80;99.90;;;;;;5035901;28;20494;-70
2023/12/04 05:36:04;;;;;;;44.22;41.63;;;7.90;99.90;;;;;;5035588;28;20036;-69
2023/12/04 05:38:30;;;;;;;46.33;43.30;;;7.90;99.90;;;;;;5048681;28;20022;-69
2023/12/04 05:40:56;;;;;;;44.53;41.58;;;7.90;99.90;;;;;;5035046;28;20030;-69
2023/12/04 05:43:23;;;;;;;43.70;40.78;;;7.90;99.90;;;;;;5035495;28;20033;-70
2023/12/04 05:45:49;;;;;;;46.22;43.03;;;8.00;99.90;;;;;;5034399;28;20049;-69
2023/12/04 05:48:15;;;;;;;71.90;67.65;;;8.00;99.90;;;;;;5035483;28;20040;-69
2023/12/04 05:50:41;;;;;;;56.35;52.75;;;8.00;99.90;;;;;;5034878;28;20101;-69
2023/12/04 05:53:07;;;;;;;101.00;41.65;;;8.10;99.90;;;;;;5035438;28;20021;-69
2023/12/04 05:55:34;;;;;;;52.92;48.75;;;8.10;99.90;;;;;;5034908;28;20037;-69
2023/12/04 05:58:00;;;;;;;56.85;53.38;;;8.10;99.90;;;;;;5035366;28;20034;-69
2023/12/04 06:00:26;;;;;;;56.40;52.28;;;8.10;99.90;;;;;;5031411;28;20042;-69
2023/12/04 06:02:52;;;;;;;60.75;57.22;;;8.20;99.90;;;;;;5015478;28;20044;-69
2023/12/04 06:05:18;;;;;;;51.65;47.45;;;8.20;99.90;;;;;;5015175;28;20041;-70
2023/12/04 06:07:44;;;;;;;50.50;46.95;;;8.20;99.90;;;;;;5015512;28;20041;-70
2023/12/04 06:10:10;;;;;;;56.80;52.92;;;8.20;99.90;;;;;;5015056;28;20499;-69
2023/12/04 06:12:37;;;;;;;46.47;43.30;;;8.20;99.90;;;;;;4999528;28;20026;-69
2023/12/04 06:15:03;;;;;;;48.58;45.10;;;8.20;99.90;;;;;;5015141;28;20056;-69
2023/12/04 06:17:29;;;;;;;48.33;45.08;;;8.30;99.90;;;;;;5033567;28;20026;-69
2023/12/04 06:19:55;;;;;;;51.20;47.85;;;8.20;99.90;;;;;;5034445;28;20041;-69
2023/12/04 06:22:22;;;;;;;49.20;46.22;;;8.30;99.90;;;;;;5034712;28;20493;-69
2023/12/04 06:24:48;;;;;;;48.63;45.70;;;8.30;99.90;;;;;;5032663;28;20068;-70
2023/12/04 06:27:16;;;;;;;52.10;48.92;;;8.30;99.90;;;;;;5033073;28;20033;-69
2023/12/04 06:29:43;;;;;;;56.15;52.60;;;8.30;99.90;;;;;;5049903;28;20421;-69
2023/12/04 06:32:10;;;;;;;62.65;58.65;;;8.30;99.90;;;;;;5034151;28;20044;-69
2023/12/04 06:34:37;;;;;;;138.23;126.38;;;8.30;99.90;;;;;;5016449;28;20044;-69
2023/12/04 06:37:03;;;;;;;46.17;43.28;;;8.30;99.90;;;;;;5016041;28;20042;-69
2023/12/04 06:39:32;;;;;;;53.97;50.60;;;8.30;99.90;;;;;;5033315;28;20038;-69
2023/12/04 06:41:59;;;;;;;60.40;56.80;;;8.30;99.90;;;;;;5032790;28;20470;-69
2023/12/04 06:44:25;;;;;;;53.65;50.35;;;8.30;99.90;;;;;;5034545;28;20052;-69
2023/12/04 06:46:52;;;;;;;60.95;57.55;;;8.30;99.90;;;;;;5012739;28;20034;-69
2023/12/04 06:49:18;;;;;;;69.15;65.22;;;8.30;99.90;;;;;;5013374;28;20041;-69
2023/12/04 06:51:44;;;;;;;68.72;64.68;;;8.30;99.90;;;;;;5014352;28;20395;-69
2023/12/04 06:54:11;;;;;;;74.10;66.35;;;8.30;99.90;;;;;;5014456;28;20026;-69
2023/12/04 06:56:38;;;;;;;55.67;52.22;;;8.30;99.90;;;;;;5013670;28;20395;-69
2023/12/04 06:59:04;;;;;;;61.25;57.63;;;8.30;99.90;;;;;;5029762;28;20025;-69
2023/12/04 07:01:30;;;;;;;67.13;63.40;;;8.30;99.90;;;;;;5025405;28;20043;-69
2023/12/04 07:03:56;;;;;;;78.43;74.15;;;8.30;99.90;;;;;;5034096;28;20025;-69
2023/12/04 07:06:22;;;;;;;89.25;84.45;;;8.30;99.90;;;;;;5034008;28;20029;-69
2023/12/04 07:08:49;;;;;;;70.55;66.28;;;8.30;99.90;;;;;;5034160;28;20030;-69
2023/12/04 07:11:16;;;;;;;77.13;72.88;;;8.30;99.90;;;;;;5033463;28;20123;-69
2023/12/04 07:13:42;;;;;;;81.10;76.50;;;8.30;99.90;;;;;;5034174;28;20065;-70
2023/12/04 07:16:08;;;;;;;65.40;61.75;;;8.20;99.90;;;;;;5032455;28;20034;-69
2023/12/04 07:18:34;;;;;;;77.22;72.63;;;8.30;99.90;;;;;;5033552;28;20094;-70
2023/12/04 07:21:01;;;;;;;76.15;71.88;;;8.30;99.90;;;;;;5031199;28;20044;-69
2023/12/04 07:23:27;;;;;;;103.40;97.93;;;8.30;99.90;;;;;;5033327;28;20038;-68
2023/12/04 07:25:53;;;;;;;94.53;89.55;;;8.30;99.90;;;;;;5033257;28;20044;-68
2023/12/04 07:28:19;;;;;;;122.47;115.97;;;8.30;99.90;;;;;;5033051;28;20053;-68
2023/12/04 07:30:46;;;;;;;124.93;118.00;;;8.30;99.90;;;;;;5027024;28;20522;-68
2023/12/04 07:33:12;;;;;;;135.45;127.90;;;8.40;99.90;;;;;;5013936;28;20030;-68
2023/12/04 07:35:38;;;;;;;86.47;81.63;;;8.40;99.90;;;;;;5013488;28;20383;-68
2023/12/04 07:38:04;;;;;;;101.20;95.45;;;8.40;99.90;;;;;;5011738;28;20054;-69
2023/12/04 07:40:30;;;;;;;46.50;43.83;;;8.40;99.90;;;;;;5012895;28;20037;-68
2023/12/04 07:42:57;;;;;;;73.47;69.30;;;8.40;99.90;;;;;;5012885;28;20041;-68
2023/12/04 07:45:23;;;;;;;97.63;92.25;;;8.50;99.90;;;;;;5011508;28;20061;-68
2023/12/04 07:47:50;;;;;;;51.30;48.28;;;8.50;99.90;;;;;;5013393;28;20041;-69
2023/12/04 07:50:16;;;;;;;76.32;71.70;;;8.50;99.90;;;;;;5013614;28;20041;-69
2023/12/04 07:52:43;;;;;;;72.47;68.13;;;8.50;99.90;;;;;;5004808;28;20042;-69
2023/12/04 07:55:09;;;;;;;74.72;70.40;;;8.50;99.90;;;;;;4994181;28;20050;-69
2023/12/04 07:57:35;;;;;;;61.05;57.72;;;8.50;99.90;;;;;;5005593;28;20033;-68
2023/12/04 08:00:01;;;;;;;62.40;58.50;;;8.50;99.90;;;;;;5013086;28;20045;-69
2023/12/04 08:02:27;;;;;;;51.53;48.50;;;8.50;99.90;;;;;;5008571;28;20501;-68
2023/12/04 08:04:54;;;;;;;62.45;58.85;;;8.50;99.90;;;;;;5013468;28;20065;-68
2023/12/04 08:07:20;;;;;;;51.72;48.63;;;8.50;99.90;;;;;;5009802;28;20042;-69
2023/12/04 08:09:46;;;;;;;39.97;37.53;;;8.50;99.90;;;;;;5015357;28;20033;-69
2023/12/04 08:12:12;;;;;;;43.10;40.03;;;8.50;99.90;;;;;;5020530;28;20033;-69
2023/12/04 08:14:38;;;;;;;147.00;138.50;;;8.50;99.90;;;;;;5020324;28;20046;-71
2023/12/04 08:17:05;;;;;;;170.57;161.43;;;8.60;99.90;;;;;;5012448;28;20049;-68
2023/12/04 08:19:31;;;;;;;170.68;161.77;;;8.60;99.90;;;;;;5012933;28;20068;-75
2023/12/04 08:21:58;;;;;;;101.18;95.25;;;8.70;99.90;;;;;;5015978;28;20650;-73
2023/12/04 08:24:25;;;;;;;122.28;115.63;;;8.70;99.90;;;;;;5023373;28;20045;-71
2023/12/04 08:26:51;;;;;;;123.60;117.20;;;8.70;99.90;;;;;;5008750;28;20039;-70
2023/12/04 08:29:18;;;;;;;90.93;85.72;;;8.70;99.90;;;;;;5011023;28;20057;-72
2023/12/04 08:31:44;;;;;;;76.07;71.93;;;8.80;99.90;;;;;;5010296;28;20053;-72
2023/12/04 08:34:10;;;;;;;68.57;64.72;;;8.80;99.90;;;;;;5012385;28;20026;-70
2023/12/04 08:36:36;;;;;;;81.55;76.97;;;8.80;99.90;;;;;;5010809;28;20045;-71
2023/12/04 08:39:03;;;;;;;71.03;66.03;;;8.80;99.90;;;;;;5012275;28;20387;-71
2023/12/04 08:41:30;;;;;;;58.22;54.92;;;8.80;99.90;;;;;;5027682;28;20037;-68
2023/12/04 08:43:56;;;;;;;76.82;72.53;;;8.80;99.90;;;;;;5015726;28;20034;-68
2023/12/04 08:46:22;;;;;;;83.70;79.28;;;8.80;99.90;;;;;;5011352;28;20045;-68
2023/12/04 08:48:48;;;;;;;85.40;80.75;;;8.80;99.90;;;;;;5011351;28;20034;-69
2023/12/04 08:51:17;;;;;;;78.22;73.78;;;8.80;99.90;;;;;;5010793;28;20072;-69
2023/12/04 08:53:43;;;;;;;68.28;64.50;;;8.90;99.90;;;;;;5012267;28;20030;-72
2023/12/04 08:56:13;;;;;;;83.22;78.45;;;8.90;99.90;;;;;;5010980;28;20043;-73
2023/12/04 08:58:39;;;;;;;78.13;73.60;;;8.90;99.90;;;;;;5012313;28;20049;-72
2023/12/04 09:01:05;;;;;;;82.40;78.00;;;8.90;99.90;;;;;;5007219;28;20567;-73
2023/12/04 09:03:31;;;;;;;81.32;77.20;;;8.90;99.90;;;;;;5027019;28;20041;-72
2023/12/04 09:05:57;;;;;;;76.20;72.25;;;8.90;99.90;;;;;;5011954;28;20422;-71
2023/12/04 09:08:26;;;;;;;79.93;75.45;;;9.00;99.90;;;;;;5027363;28;20395;-68
2023/12/04 09:10:52;;;;;;;81.45;77.07;;;8.90;99.90;;;;;;5012149;28;20392;-68
2023/12/04 09:13:18;;;;;;;98.55;93.30;;;9.00;99.90;;;;;;5012432;28;20030;-69
2023/12/04 09:15:44;;;;;;;85.95;81.43;;;9.00;99.90;;;;;;5010158;28;20426;-69
2023/12/04 09:18:10;;;;;;;84.85;80.45;;;9.10;99.90;;;;;;5012005;28;20041;-70
2023/12/04 09:20:36;;;;;;;79.50;75.20;;;9.10;99.90;;;;;;5011982;28;20038;-71
2023/12/04 09:23:02;;;;;;;91.40;86.22;;;9.20;99.90;;;;;;5012061;28;20033;-70
2023/12/04 09:25:31;;;;;;;79.80;75.32;;;9.10;99.90;;;;;;5011529;28;20471;-71
2023/12/04 09:27:57;;;;;;;86.38;81.82;;;9.20;99.90;;;;;;5011901;28;20033;-69
2023/12/04 09:30:23;;;;;;;109.90;103.72;;;9.20;99.90;;;;;;5011460;28;20041;-66
2023/12/04 09:32:49;;;;;;;92.75;87.80;;;9.20;99.90;;;;;;5012082;28;20495;-70
2023/12/04 09:35:16;;;;;;;101.95;96.65;;;9.30;99.90;;;;;;5009918;28;20038;-70
2023/12/04 09:37:42;;;;;;;79.75;75.28;;;9.30;99.90;;;;;;5010919;28;20034;-72
2023/12/04 09:40:08;;;;;;;113.30;107.20;;;9.30;99.90;;;;;;5010925;28;20475;-72
2023/12/04 09:42:34;;;;;;;100.32;94.93;;;9.30;99.90;;;;;;5009631;28;20440;-70
2023/12/04 09:45:01;;;;;;;94.07;89.00;;;9.30;99.90;;;;;;5011349;28;20045;-70
2023/12/04 09:47:27;;;;;;;110.35;104.28;;;9.30;99.90;;;;;;5009340;28;20037;-70
2023/12/04 09:49:53;;;;;;;83.45;78.75;;;9.30;99.90;;;;;;5026666;28;20045;-70
2023/12/04 09:52:20;;;;;;;72.75;68.65;;;9.30;99.90;;;;;;5010039;28;20064;-69
2023/12/04 09:54:46;;;;;;;61.47;57.13;;;9.30;99.90;;;;;;5011730;28;20648;-70
2023/12/04 09:57:15;;;;;;;52.75;49.58;;;9.40;99.90;;;;;;5011534;28;20033;-70
2023/12/04 09:59:41;;;;;;;45.72;42.70;;;9.40;99.90;;;;;;5012394;28;20468;-69
2023/12/04 10:02:08;;;;;;;57.10;53.60;;;9.50;99.90;;;;;;5028895;28;20026;-70
2023/12/04 10:04:35;;;;;;;51.38;48.42;;;9.60;99.90;;;;;;5013063;28;20475;-70
2023/12/04 10:07:02;;;;;;;61.22;57.80;;;9.70;99.90;;;;;;5015097;28;20061;-70
2023/12/04 10:09:28;;;;;;;60.40;57.13;;;9.70;99.90;;;;;;5015654;28;20041;-71
2023/12/04 10:11:56;;;;;;;58.55;55.22;;;9.70;99.90;;;;;;5029859;28;20037;-70
2023/12/04 10:14:22;;;;;;;64.20;60.53;;;9.80;99.90;;;;;;5024578;28;20025;-71
2023/12/04 10:16:49;;;;;;;60.80;57.20;;;9.80;99.90;;;;;;5034614;28;20394;-70
2023/12/04 10:19:18;;;;;;;62.80;59.42;;;9.80;99.90;;;;;;5018237;28;20050;-70
2023/12/04 10:21:46;;;;;;;62.05;58.50;;;9.80;99.90;;;;;;5015393;28;20054;-69
2023/12/04 10:24:12;;;;;;;62.05;58.28;;;9.80;99.90;;;;;;5014067;28;20029;-69
2023/12/04 10:26:41;;;;;;;64.93;61.47;;;9.90;99.90;;;;;;5001605;28;20042;-69
2023/12/04 10:29:07;;;;;;;62.15;58.53;;;9.90;99.90;;;;;;5038745;28;20018;-68
2023/12/04 10:31:34;;;;;;;62.05;58.58;;;9.80;99.90;;;;;;5049946;28;20505;-69
2023/12/04 10:34:00;;;;;;;77.97;73.68;;;9.80;99.90;;;;;;5017633;28;20042;-69
2023/12/04 10:36:26;;;;;;;49.97;46.78;;;9.80;99.90;;;;;;5011299;28;20042;-69
2023/12/04 10:39:00;;;;;;;43.08;40.05;;;9.90;99.90;;;;;;5013754;28;20040;-69
2023/12/04 10:41:27;;;;;;;44.78;42.25;;;9.80;99.90;;;;;;5014556;28;20033;-69
2023/12/04 10:43:54;;;;;;;52.05;48.70;;;9.80;99.90;;;;;;5017460;28;20042;-69
2023/12/04 10:46:20;;;;;;;70.18;66.07;;;9.90;99.90;;;;;;4996442;28;20045;-69
2023/12/04 10:48:46;;;;;;;48.33;45.42;;;9.90;99.90;;;;;;5013363;28;20033;-69
2023/12/04 10:51:12;;;;;;;41.03;38.30;;;10.00;99.90;;;;;;5020310;28;20033;-69
2023/12/04 10:53:42;;;;;;;43.97;40.97;;;10.00;99.90;;;;;;5019973;28;20475;-69
2023/12/04 10:56:10;;;;;;;62.22;58.60;;;10.10;99.90;;;;;;5013456;28;20049;-70
2023/12/04 10:58:36;;;;;;;57.88;54.35;;;10.20;99.90;;;;;;5017684;28;20097;-69
2023/12/04 11:01:02;;;;;;;44.13;41.10;;;10.30;99.90;;;;;;5009989;28;20049;-69
2023/12/04 11:03:33;;;;;;;67.72;63.55;;;10.40;99.90;;;;;;5008592;28;20030;-70
2023/12/04 11:06:04;;;;;;;58.77;54.20;;;10.50;99.90;;;;;;5008081;28;20034;-69
2023/12/04 11:08:32;;;;;;;50.47;47.15;;;10.50;99.90;;;;;;5023881;28;20030;-70
2023/12/04 11:11:10;;;;;;;89.25;83.97;;;10.60;99.90;;;;;;5008517;28;20046;-70
2023/12/04 11:13:42;;;;;;;67.50;63.45;;;10.60;99.90;;;;;;4995821;28;20375;-70
2023/12/04 11:16:27;;;;;;;56.53;52.45;;;10.70;99.90;;;;;;5009651;28;20030;-69
2023/12/04 11:19:02;;;;;;;61.20;57.40;;;10.70;99.90;;;;;;5023114;28;20042;-70
2023/12/04 11:21:28;;;;;;;160.68;151.30;;;10.70;99.90;;;;;;5011538;28;20041;-70
2023/12/04 11:23:54;;;;;;;142.57;134.40;;;10.70;99.90;;;;;;4995166;28;20042;-70
2023/12/04 11:26:21;;;;;;;169.02;158.98;;;10.70;99.90;;;;;;5011934;28;20052;-69
2023/12/04 11:28:47;;;;;;;192.07;180.93;;;10.70;99.90;;;;;;5011489;28;20049;-70
2023/12/04 11:31:14;;;;;;;168.38;157.93;;;10.70;99.90;;;;;;5026702;28;20048;-70
2023/12/04 11:33:40;;;;;;;180.23;169.80;;;10.80;99.90;;;;;;5010324;28;20034;-69
2023/12/04 11:36:14;;;;;;;110.10;103.32;;;10.80;99.90;;;;;;5012618;28;20479;-70
2023/12/04 11:38:48;;;;;;;53.88;49.88;;;10.80;99.90;;;;;;5009434;28;20395;-67
2023/12/04 11:41:21;;;;;;;52.70;48.08;;;10.90;99.90;;;;;;5012577;28;20036;-68
2023/12/04 11:43:47;;;;;;;52.00;48.30;;;11.00;99.90;;;;;;5012144;28;20771;-68
2023/12/04 11:46:14;;;;;;;54.25;50.22;;;11.10;99.90;;;;;;5011790;28;20716;-68
2023/12/04 11:48:40;;;;;;;52.08;48.17;;;11.20;99.90;;;;;;5011745;28;20038;-68
2023/12/04 11:51:07;;;;;;;66.38;61.28;;;11.20;99.90;;;;;;5012331;28;20403;-68
2023/12/04 11:53:38;;;;;;;49.08;44.92;;;11.30;99.90;;;;;;5011436;28;20038;-68
2023/12/04 11:56:14;;;;;;;48.80;45.00;;;11.30;99.90;;;;;;5026731;28;20053;-68
2023/12/04 11:58:43;;;;;;;50.47;46.85;;;11.40;99.90;;;;;;4997117;28;20041;-68
2023/12/04 12:01:09;;;;;;;39.30;36.25;;;11.50;99.90;;;;;;4999573;28;20388;-68
2023/12/04 12:03:35;;;;;;;49.50;45.50;;;11.60;99.90;;;;;;5009760;28;20022;-68
2023/12/04 12:06:02;;;;;;;50.97;47.47;;;11.60;99.90;;;;;;5010736;28;20045;-68
2023/12/04 12:08:28;;;;;;;56.75;53.15;;;11.70;99.90;;;;;;5010123;28;20490;-68
2023/12/04 12:10:54;;;;;;;37.63;35.03;;;11.70;99.90;;;;;;5009883;28;20426;-68
2023/12/04 12:13:21;;;;;;;51.30;47.95;;;11.80;99.90;;;;;;5004358;28;20041;-68
2023/12/04 12:15:50;;;;;;;50.08;46.38;;;11.90;99.90;;;;;;4998797;28;20038;-68
2023/12/04 12:18:16;;;;;;;104.97;98.50;;;12.00;99.90;;;;;;5012180;28;20049;-68
2023/12/04 12:20:42;;;;;;;101.78;95.95;;;12.00;99.90;;;;;;5011820;28;20113;-68
2023/12/04 12:23:08;;;;;;;100.95;95.25;;;12.10;99.90;;;;;;5010897;28;20030;-68
2023/12/04 12:25:35;;;;;;;96.82;91.55;;;12.20;99.90;;;;;;5020170;28;20042;-68
2023/12/04 12:28:05;;;;;;;85.05;80.30;;;12.20;99.90;;;;;;5011190;28;20037;-68
2023/12/04 12:30:31;;;;;;;117.47;110.75;;;12.30;99.90;;;;;;5014382;28;20045;-68